sensor_id;sensor_type;location;lat;lon;timestamp;P1;durP1;ratioP1;P2;durP2;ratioP2
51692;SDS011;37777;53.066;21.638;2023-02-21T00:00:57;5.78;;;2.78;;
51692;SDS011;37777;53.066;21.638;2023-02-21T00:08:18;14.38;;;2.78;;
51692;SDS011;37777;53.066;21.638;2023-02-21T00:15:38;10.95;;;3.22;;
51692;SDS011;37777;53.066;21.638;2023-02-21T00:22:59;2.20;;;2.05;;
51692;SDS011;37777;53.066;21.638;2023-02-21T00:30:19;6.72;;;2.50;;
51692;SDS011;37777;53.066;21.638;2023-02-21T00:37:40;7.18;;;2.72;;
51692;SDS011;37777;53.066;21.638;2023-02-21T00:45:00;9.70;;;2.58;;
51692;SDS011;37777;53.066;21.638;2023-02-21T00:52:21;15.45;;;3.08;;
51692;SDS011;37777;53.066;21.638;2023-02-21T00:59:41;7.40;;;2.55;;
51692;SDS011;37777;53.066;21.638;2023-02-21T01:07:02;4.43;;;2.45;;
51692;SDS011;37777;53.066;21.638;2023-02-21T01:14:23;7.38;;;2.90;;
51692;SDS011;37777;53.066;21.638;2023-02-21T01:21:43;12.25;;;3.85;;
51692;SDS011;37777;53.066;21.638;2023-02-21T01:29:04;9.68;;;2.33;;
51692;SDS011;37777;53.066;21.638;2023-02-21T01:36:25;7.00;;;3.47;;
51692;SDS011;37777;53.066;21.638;2023-02-21T01:43:56;6.85;;;3.15;;
51692;SDS011;37777;53.066;21.638;2023-02-21T01:51:19;7.00;;;2.92;;
51692;SDS011;37777;53.066;21.638;2023-02-21T01:58:42;2.45;;;2.03;;
51692;SDS011;37777;53.066;21.638;2023-02-21T02:06:05;7.63;;;2.30;;
51692;SDS011;37777;53.066;21.638;2023-02-21T02:27:47;7.00;;;2.63;;
51692;SDS011;37777;53.066;21.638;2023-02-21T02:35:11;2.83;;;2.40;;
51692;SDS011;37777;53.066;21.638;2023-02-21T02:42:19;2.67;;;2.20;;
51692;SDS011;37777;53.066;21.638;2023-02-21T02:49:46;8.70;;;2.83;;
51692;SDS011;37777;53.066;21.638;2023-02-21T02:56:49;10.80;;;3.13;;
51692;SDS011;37777;53.066;21.638;2023-02-21T03:11:06;6.07;;;2.30;;
51692;SDS011;37777;53.066;21.638;2023-02-21T03:25:25;4.00;;;1.98;;
51692;SDS011;37777;53.066;21.638;2023-02-21T03:32:33;12.05;;;2.25;;
51692;SDS011;37777;53.066;21.638;2023-02-21T03:39:37;4.25;;;2.45;;
51692;SDS011;37777;53.066;21.638;2023-02-21T03:46:39;8.88;;;2.70;;
51692;SDS011;37777;53.066;21.638;2023-02-21T03:53:44;8.25;;;3.03;;
51692;SDS011;37777;53.066;21.638;2023-02-21T04:00:46;9.90;;;2.78;;
51692;SDS011;37777;53.066;21.638;2023-02-21T04:07:49;5.28;;;2.75;;
51692;SDS011;37777;53.066;21.638;2023-02-21T04:14:51;5.13;;;2.55;;
51692;SDS011;37777;53.066;21.638;2023-02-21T04:21:53;14.30;;;4.25;;
51692;SDS011;37777;53.066;21.638;2023-02-21T04:28:55;6.55;;;3.03;;
51692;SDS011;37777;53.066;21.638;2023-02-21T04:35:57;9.85;;;2.45;;
51692;SDS011;37777;53.066;21.638;2023-02-21T04:42:59;5.82;;;2.47;;
51692;SDS011;37777;53.066;21.638;2023-02-21T04:50:02;7.93;;;4.13;;
51692;SDS011;37777;53.066;21.638;2023-02-21T04:57:04;5.30;;;2.50;;
51692;SDS011;37777;53.066;21.638;2023-02-21T05:04:06;8.27;;;2.45;;
51692;SDS011;37777;53.066;21.638;2023-02-21T05:11:08;11.00;;;3.65;;
51692;SDS011;37777;53.066;21.638;2023-02-21T05:18:11;7.90;;;2.70;;
51692;SDS011;37777;53.066;21.638;2023-02-21T05:25:14;8.77;;;3.03;;
51692;SDS011;37777;53.066;21.638;2023-02-21T05:32:20;5.70;;;2.95;;
51692;SDS011;37777;53.066;21.638;2023-02-21T05:39:23;5.70;;;4.10;;
51692;SDS011;37777;53.066;21.638;2023-02-21T05:46:29;2.38;;;2.28;;
51692;SDS011;37777;53.066;21.638;2023-02-21T05:53:33;5.28;;;3.08;;
51692;SDS011;37777;53.066;21.638;2023-02-21T06:00:35;14.73;;;5.13;;
51692;SDS011;37777;53.066;21.638;2023-02-21T06:07:37;13.38;;;3.22;;
51692;SDS011;37777;53.066;21.638;2023-02-21T06:14:39;11.32;;;3.67;;
51692;SDS011;37777;53.066;21.638;2023-02-21T06:21:42;7.78;;;3.05;;
51692;SDS011;37777;53.066;21.638;2023-02-21T06:28:45;4.97;;;2.90;;
51692;SDS011;37777;53.066;21.638;2023-02-21T06:35:47;7.93;;;2.67;;
51692;SDS011;37777;53.066;21.638;2023-02-21T06:42:49;5.07;;;2.67;;
51692;SDS011;37777;53.066;21.638;2023-02-21T06:49:51;2.88;;;2.33;;
51692;SDS011;37777;53.066;21.638;2023-02-21T06:56:53;6.18;;;2.97;;
51692;SDS011;37777;53.066;21.638;2023-02-21T07:03:56;2.70;;;2.03;;
51692;SDS011;37777;53.066;21.638;2023-02-21T07:10:58;8.50;;;3.15;;
51692;SDS011;37777;53.066;21.638;2023-02-21T07:18:00;5.80;;;3.35;;
51692;SDS011;37777;53.066;21.638;2023-02-21T07:25:03;5.57;;;2.50;;
51692;SDS011;37777;53.066;21.638;2023-02-21T07:32:06;7.70;;;2.70;;
51692;SDS011;37777;53.066;21.638;2023-02-21T07:39:08;12.40;;;3.08;;
51692;SDS011;37777;53.066;21.638;2023-02-21T07:46:11;5.45;;;2.45;;
51692;SDS011;37777;53.066;21.638;2023-02-21T07:53:17;14.32;;;2.80;;
51692;SDS011;37777;53.066;21.638;2023-02-21T08:00:20;7.55;;;2.55;;
51692;SDS011;37777;53.066;21.638;2023-02-21T08:07:25;9.52;;;3.35;;
51692;SDS011;37777;53.066;21.638;2023-02-21T08:14:28;9.52;;;3.13;;
51692;SDS011;37777;53.066;21.638;2023-02-21T08:21:30;7.25;;;2.85;;
51692;SDS011;37777;53.066;21.638;2023-02-21T08:28:32;6.70;;;3.05;;
51692;SDS011;37777;53.066;21.638;2023-02-21T08:35:34;7.32;;;2.90;;
51692;SDS011;37777;53.066;21.638;2023-02-21T08:42:37;7.38;;;3.05;;
51692;SDS011;37777;53.066;21.638;2023-02-21T08:49:39;7.85;;;2.83;;
51692;SDS011;37777;53.066;21.638;2023-02-21T08:56:43;6.78;;;2.47;;
51692;SDS011;37777;53.066;21.638;2023-02-21T09:03:45;7.60;;;3.03;;
51692;SDS011;37777;53.066;21.638;2023-02-21T09:10:47;6.55;;;2.70;;
51692;SDS011;37777;53.066;21.638;2023-02-21T09:17:50;11.43;;;3.10;;
51692;SDS011;37777;53.066;21.638;2023-02-21T09:24:52;8.00;;;3.15;;
51692;SDS011;37777;53.066;21.638;2023-02-21T09:31:55;9.40;;;3.30;;
51692;SDS011;37777;53.066;21.638;2023-02-21T09:38:57;10.00;;;2.58;;
51692;SDS011;37777;53.066;21.638;2023-02-21T09:46:01;17.85;;;4.28;;
51692;SDS011;37777;53.066;21.638;2023-02-21T09:53:07;16.60;;;2.85;;
51692;SDS011;37777;53.066;21.638;2023-02-21T10:00:16;13.63;;;3.75;;
51692;SDS011;37777;53.066;21.638;2023-02-21T10:21:55;8.88;;;4.50;;
51692;SDS011;37777;53.066;21.638;2023-02-21T10:29:00;13.15;;;3.63;;
51692;SDS011;37777;53.066;21.638;2023-02-21T10:36:38;9.98;;;3.60;;
51692;SDS011;37777;53.066;21.638;2023-02-21T10:43:34;8.68;;;3.20;;
51692;SDS011;37777;53.066;21.638;2023-02-21T10:57:57;14.65;;;3.67;;
51692;SDS011;37777;53.066;21.638;2023-02-21T11:05:11;15.23;;;3.90;;
51692;SDS011;37777;53.066;21.638;2023-02-21T11:19:21;7.82;;;4.10;;
51692;SDS011;37777;53.066;21.638;2023-02-21T11:26:23;16.92;;;4.47;;
51692;SDS011;37777;53.066;21.638;2023-02-21T11:33:26;13.88;;;5.20;;
51692;SDS011;37777;53.066;21.638;2023-02-21T11:47:40;15.00;;;4.23;;
51692;SDS011;37777;53.066;21.638;2023-02-21T11:54:45;13.40;;;4.00;;
51692;SDS011;37777;53.066;21.638;2023-02-21T12:52:47;16.05;;;4.28;;
51692;SDS011;37777;53.066;21.638;2023-02-21T13:00:26;16.25;;;4.75;;
51692;SDS011;37777;53.066;21.638;2023-02-21T13:07:39;17.63;;;4.10;;
51692;SDS011;37777;53.066;21.638;2023-02-21T13:29:30;18.27;;;3.72;;
51692;SDS011;37777;53.066;21.638;2023-02-21T13:43:44;10.27;;;3.47;;
51692;SDS011;37777;53.066;21.638;2023-02-21T14:05:02;18.92;;;4.95;;
51692;SDS011;37777;53.066;21.638;2023-02-21T14:12:06;22.27;;;5.03;;
51692;SDS011;37777;53.066;21.638;2023-02-21T14:19:09;21.73;;;4.75;;
51692;SDS011;37777;53.066;21.638;2023-02-21T14:33:35;28.73;;;7.72;;
51692;SDS011;37777;53.066;21.638;2023-02-21T14:40:41;19.27;;;4.97;;
51692;SDS011;37777;53.066;21.638;2023-02-21T14:48:14;8.93;;;4.05;;
51692;SDS011;37777;53.066;21.638;2023-02-21T15:02:51;21.73;;;5.38;;
51692;SDS011;37777;53.066;21.638;2023-02-21T15:17:23;18.48;;;5.03;;
51692;SDS011;37777;53.066;21.638;2023-02-21T15:24:27;15.13;;;5.00;;
51692;SDS011;37777;53.066;21.638;2023-02-21T15:46:45;19.77;;;4.28;;
51692;SDS011;37777;53.066;21.638;2023-02-21T16:01:19;13.15;;;4.60;;
51692;SDS011;37777;53.066;21.638;2023-02-21T16:08:23;22.25;;;5.70;;
51692;SDS011;37777;53.066;21.638;2023-02-21T16:15:26;17.63;;;4.88;;
51692;SDS011;37777;53.066;21.638;2023-02-21T16:29:59;20.38;;;5.03;;
51692;SDS011;37777;53.066;21.638;2023-02-21T16:37:04;22.95;;;6.45;;
51692;SDS011;37777;53.066;21.638;2023-02-21T16:44:11;20.90;;;5.38;;
51692;SDS011;37777;53.066;21.638;2023-02-21T16:51:13;22.45;;;4.88;;
51692;SDS011;37777;53.066;21.638;2023-02-21T17:05:25;9.77;;;4.50;;
51692;SDS011;37777;53.066;21.638;2023-02-21T17:12:29;6.20;;;3.47;;
51692;SDS011;37777;53.066;21.638;2023-02-21T17:19:32;23.05;;;5.88;;
51692;SDS011;37777;53.066;21.638;2023-02-21T17:26:35;10.05;;;4.05;;
51692;SDS011;37777;53.066;21.638;2023-02-21T17:33:41;24.88;;;5.63;;
51692;SDS011;37777;53.066;21.638;2023-02-21T17:40:44;30.77;;;8.88;;
51692;SDS011;37777;53.066;21.638;2023-02-21T17:47:48;19.27;;;7.53;;
51692;SDS011;37777;53.066;21.638;2023-02-21T17:54:51;21.67;;;6.07;;
51692;SDS011;37777;53.066;21.638;2023-02-21T18:01:54;24.75;;;5.88;;
51692;SDS011;37777;53.066;21.638;2023-02-21T18:08:57;15.30;;;5.40;;
51692;SDS011;37777;53.066;21.638;2023-02-21T18:15:59;23.90;;;5.95;;
51692;SDS011;37777;53.066;21.638;2023-02-21T18:23:03;12.70;;;4.55;;
51692;SDS011;37777;53.066;21.638;2023-02-21T18:30:10;18.17;;;5.57;;
51692;SDS011;37777;53.066;21.638;2023-02-21T18:37:17;20.85;;;5.93;;
51692;SDS011;37777;53.066;21.638;2023-02-21T18:44:20;17.45;;;4.70;;
51692;SDS011;37777;53.066;21.638;2023-02-21T18:51:23;12.35;;;4.70;;
51692;SDS011;37777;53.066;21.638;2023-02-21T18:58:28;16.83;;;5.30;;
51692;SDS011;37777;53.066;21.638;2023-02-21T19:05:32;15.32;;;5.00;;
51692;SDS011;37777;53.066;21.638;2023-02-21T19:12:35;22.98;;;5.55;;
51692;SDS011;37777;53.066;21.638;2023-02-21T19:19:39;21.58;;;6.25;;
51692;SDS011;37777;53.066;21.638;2023-02-21T19:26:46;24.75;;;6.30;;
51692;SDS011;37777;53.066;21.638;2023-02-21T19:33:49;21.48;;;6.28;;
51692;SDS011;37777;53.066;21.638;2023-02-21T19:40:53;17.75;;;4.68;;
51692;SDS011;37777;53.066;21.638;2023-02-21T19:47:58;23.40;;;6.05;;
51692;SDS011;37777;53.066;21.638;2023-02-21T19:55:03;21.50;;;6.45;;
51692;SDS011;37777;53.066;21.638;2023-02-21T20:02:12;17.35;;;5.55;;
51692;SDS011;37777;53.066;21.638;2023-02-21T20:09:17;28.33;;;6.03;;
51692;SDS011;37777;53.066;21.638;2023-02-21T20:16:20;23.38;;;5.43;;
51692;SDS011;37777;53.066;21.638;2023-02-21T20:23:25;15.88;;;4.97;;
51692;SDS011;37777;53.066;21.638;2023-02-21T20:30:29;18.65;;;5.25;;
51692;SDS011;37777;53.066;21.638;2023-02-21T20:37:32;17.95;;;5.28;;
51692;SDS011;37777;53.066;21.638;2023-02-21T20:44:37;32.53;;;6.47;;
51692;SDS011;37777;53.066;21.638;2023-02-21T20:51:41;16.60;;;5.95;;
51692;SDS011;37777;53.066;21.638;2023-02-21T20:58:48;8.35;;;3.20;;
51692;SDS011;37777;53.066;21.638;2023-02-21T21:05:51;2.90;;;2.47;;
51692;SDS011;37777;53.066;21.638;2023-02-21T21:12:55;2.45;;;2.30;;
51692;SDS011;37777;53.066;21.638;2023-02-21T21:19:58;3.85;;;2.38;;
51692;SDS011;37777;53.066;21.638;2023-02-21T21:27:02;4.45;;;2.30;;
51692;SDS011;37777;53.066;21.638;2023-02-21T21:34:09;2.92;;;2.60;;
51692;SDS011;37777;53.066;21.638;2023-02-21T21:41:12;2.50;;;2.30;;
51692;SDS011;37777;53.066;21.638;2023-02-21T21:48:17;4.63;;;2.67;;
51692;SDS011;37777;53.066;21.638;2023-02-21T21:55:21;2.80;;;2.60;;
51692;SDS011;37777;53.066;21.638;2023-02-21T22:02:26;4.15;;;2.92;;
51692;SDS011;37777;53.066;21.638;2023-02-21T22:09:30;3.40;;;3.08;;
51692;SDS011;37777;53.066;21.638;2023-02-21T22:16:36;4.07;;;2.90;;
51692;SDS011;37777;53.066;21.638;2023-02-21T22:23:41;3.47;;;3.10;;
51692;SDS011;37777;53.066;21.638;2023-02-21T22:30:43;6.70;;;3.00;;
51692;SDS011;37777;53.066;21.638;2023-02-21T22:37:50;3.22;;;2.92;;
51692;SDS011;37777;53.066;21.638;2023-02-21T22:44:54;3.63;;;3.13;;
51692;SDS011;37777;53.066;21.638;2023-02-21T22:51:56;3.25;;;2.95;;
51692;SDS011;37777;53.066;21.638;2023-02-21T22:58:58;3.28;;;2.80;;
51692;SDS011;37777;53.066;21.638;2023-02-21T23:06:00;4.55;;;2.90;;
51692;SDS011;37777;53.066;21.638;2023-02-21T23:13:02;6.40;;;3.05;;
51692;SDS011;37777;53.066;21.638;2023-02-21T23:20:05;3.45;;;3.00;;
51692;SDS011;37777;53.066;21.638;2023-02-21T23:27:16;5.40;;;3.17;;
51692;SDS011;37777;53.066;21.638;2023-02-21T23:34:18;3.20;;;2.90;;
51692;SDS011;37777;53.066;21.638;2023-02-21T23:41:20;3.63;;;3.33;;
51692;SDS011;37777;53.066;21.638;2023-02-21T23:48:22;3.20;;;2.92;;
51692;SDS011;37777;53.066;21.638;2023-02-21T23:55:25;3.22;;;2.95;;
